Time;durP1;ratioP1;P1;durP2;ratioP2;P2;SDS_P1;SDS_P2;PMS_P1;PMS_P2;Temp;Humidity;BMP_temperature;BMP_pressure;BME280_temperature;BME280_humidity;BME280_pressure;Samples;Min_cycle;Max_cycle;Signal;HPM_P1;HPM_P2
2021/12/22 00:01:25;;;;;;;;;;;;;;;;;;4183102;28;31572;-53
2021/12/22 00:03:47;;;;;;;;;;;;;;;;;;4183233;28;32299;-53
2021/12/22 00:06:08;;;;;;;;;;;;;;;;;;4182730;28;31905;-53
2021/12/22 00:08:30;;;;;;;;;;;;;;;;;;4182911;28;31654;-53
2021/12/22 00:10:51;;;;;;;;;;;;;;;;;;4182940;28;31725;-53
2021/12/22 00:13:14;;;;;;;;;;;;;;;;;;4183078;28;32240;-53
2021/12/22 00:15:35;;;;;;;;;;;;;;;;;;4182783;28;31705;-53
2021/12/22 00:17:56;;;;;;;;;;;;;;;;;;4183173;28;32023;-54
2021/12/22 00:20:17;;;;;;;;;;;;;;;;;;4182879;28;32208;-53
2021/12/22 00:22:39;;;;;;;;;;;;;;;;;;4182856;28;31554;-53
2021/12/22 00:25:00;;;;;;;;;;;;;;;;;;4182394;28;32150;-53
2021/12/22 00:27:21;;;;;;;;;;;;;;;;;;4182537;28;31632;-53
2021/12/22 00:29:47;;;;;;;;;;;;;;;;;;4182459;28;31200;-53
2021/12/22 00:32:12;;;;;;;;;;;;;;;;;;4182511;28;31611;-54
2021/12/22 00:34:34;;;;;;;;;;;;;;;;;;4182436;28;31799;-53
2021/12/22 00:36:55;;;;;;;;;;;;;;;;;;4182447;28;32071;-53
2021/12/22 00:39:16;;;;;;;;;;;;;;;;;;4182199;28;31739;-53
2021/12/22 00:41:38;;;;;;;;;;;;;;;;;;4182223;28;31851;-53
2021/12/22 00:43:59;;;;;;;;;;;;;;;;;;4182094;28;31530;-54
2021/12/22 00:46:21;;;;;;;;;;;;;;;;;;4182064;28;31705;-53
2021/12/22 00:48:42;;;;;;;;;;;;;;;;;;4182201;28;32085;-53
2021/12/22 00:51:03;;;;;;;;;;;;;;;;;;4181986;28;32148;-53
2021/12/22 00:53:24;;;;;;;;;;;;;;;;;;4182104;28;32317;-53
2021/12/22 00:55:46;;;;;;;;;;;;;;;;;;4182327;28;31725;-53
2021/12/22 00:58:07;;;;;;;;;;;;;;;;;;4181811;28;32313;-53
2021/12/22 01:00:29;;;;;;;;;;;;;;;;;;4181932;28;31731;-54
2021/12/22 01:02:51;;;;;;;;;;;;;;;;;;4182200;28;32194;-52
2021/12/22 01:05:14;;;;;;;;;;;;;;;;;;4182261;28;31599;-53
2021/12/22 01:07:35;;;;;;;;;;;;;;;;;;4181543;28;31829;-53
2021/12/22 01:09:56;;;;;;;;;;;;;;;;;;4181608;28;31723;-54
2021/12/22 01:12:18;;;;;;;;;;;;;;;;;;4181613;28;32117;-53
2021/12/22 01:14:39;;;;;;;;;;;;;;;;;;4181551;28;32305;-53
2021/12/22 01:17:02;;;;;;;;;;;;;;;;;;4181931;28;31810;-53
2021/12/22 01:19:32;;;;;;;;;;;;;;;;;;4181953;28;31765;-53
2021/12/22 01:22:01;;;;;;;;;;;;;;;;;;4181754;28;32353;-53
2021/12/22 01:24:29;;;;;;;;;;;;;;;;;;4181841;28;31726;-53
2021/12/22 01:26:57;;;;;;;;;;;;;;;;;;4181686;28;31839;-53
2021/12/22 01:29:18;;;;;;;;;;;;;;;;;;4181109;28;31884;-52
2021/12/22 01:31:40;;;;;;;;;;;;;;;;;;4181852;28;31727;-53
2021/12/22 01:34:02;;;;;;;;;;;;;;;;;;4181471;28;31640;-53
2021/12/22 01:36:24;;;;;;;;;;;;;;;;;;4181690;28;32140;-53
2021/12/22 01:38:46;;;;;;;;;;;;;;;;;;4181631;28;31897;-53
2021/12/22 01:41:07;;;;;;;;;;;;;;;;;;4181825;28;31612;-54
2021/12/22 01:43:29;;;;;;;;;;;;;;;;;;4181514;28;31985;-53
2021/12/22 01:46:06;;;;;;;;;;;;;;;;;;4181622;28;31734;-53
2021/12/22 01:51:16;;;;;;;;;;;;;;;;;;4195128;28;31857;-53
2021/12/22 01:53:42;;;;;;;;;;;;;;;;;;4181730;28;31740;-53
2021/12/22 01:56:10;;;;;;;;;;;;;;;;;;4181599;28;31632;-53
2021/12/22 01:58:32;;;;;;;;;;;;;;;;;;4181085;28;32174;-53
2021/12/22 02:04:10;;;;;;;;;;;;;;;;;;4180754;28;31383;-53
2021/12/22 02:06:32;;;;;;;;;;;;;;;;;;4180661;28;32289;-53
2021/12/22 02:08:55;;;;;;;;;;;;;;;;;;4181117;28;31461;-53
2021/12/22 02:11:17;;;;;;;;;;;;;;;;;;4180721;28;31380;-53
2021/12/22 02:13:41;;;;;;;;;;;;;;;;;;4180357;28;31307;-53
2021/12/22 02:16:06;;;;;;;;;;;;;;;;;;4164361;28;31576;-53
2021/12/22 02:18:31;;;;;;;;;;;;;;;;;;4166173;28;31623;-53
2021/12/22 02:20:53;;;;;;;;;;;;;;;;;;4167681;28;32300;-53
2021/12/22 02:23:14;;;;;;;;;;;;;;;;;;4167740;28;31959;-53
2021/12/22 02:25:43;;;;;;;;;;;;;;;;;;4167760;28;31601;-53
2021/12/22 02:28:09;;;;;;;;;;;;;;;;;;4167489;28;31625;-54
2021/12/22 02:30:32;;;;;;;;;;;;;;;;;;4167879;28;31749;-53
2021/12/22 02:35:39;;;;;;;;;;;;;;;;;;4184238;28;31319;-53
2021/12/22 02:38:02;;;;;;;;;;;;;;;;;;4184440;28;31740;-52
2021/12/22 02:40:26;;;;;;;;;;;;;;;;;;4184363;28;31766;-52
2021/12/22 02:42:52;;;;;;;;;;;;;;;;;;4184243;28;31834;-53
2021/12/22 02:45:14;;;;;;;;;;;;;;;;;;4184187;28;32262;-53
2021/12/22 02:47:35;;;;;;;;;;;;;;;;;;4183835;28;31591;-53
2021/12/22 02:49:57;;;;;;;;;;;;;;;;;;4183987;28;31755;-53
2021/12/22 02:52:18;;;;;;;;;;;;;;;;;;4167943;28;31749;-53
2021/12/22 02:54:47;;;;;;;;;;;;;;;;;;4167993;28;32266;-53
2021/12/22 02:57:21;;;;;;;;;;;;;;;;;;4167884;28;32101;-52
2021/12/22 02:59:53;;;;;;;;;;;;;;;;;;4167731;28;31212;-53
2021/12/22 03:02:28;;;;;;;;;;;;;;;;;;4167890;28;32219;-53
2021/12/22 03:04:53;;;;;;;;;;;;;;;;;;4180786;28;32128;-52
2021/12/22 03:07:16;;;;;;;;;;;;;;;;;;4183664;28;31741;-53
2021/12/22 03:09:38;;;;;;;;;;;;;;;;;;4183802;28;31569;-52
2021/12/22 03:12:01;;;;;;;;;;;;;;;;;;4184063;28;32169;-52
2021/12/22 03:14:22;;;;;;;;;;;;;;;;;;4183663;28;32274;-53
2021/12/22 03:16:44;;;;;;;;;;;;;;;;;;4183949;28;32188;-53
2021/12/22 03:19:05;;;;;;;;;;;;;;;;;;4183326;28;32179;-53
2021/12/22 03:21:26;;;;;;;;;;;;;;;;;;4176268;28;32180;-53
2021/12/22 03:23:48;;;;;;;;;;;;;;;;;;4183702;28;31551;-53
2021/12/22 03:26:09;;;;;;;;;;;;;;;;;;4183767;28;31600;-53
2021/12/22 03:28:32;;;;;;;;;;;;;;;;;;4183215;28;31723;-53
2021/12/22 03:30:54;;;;;;;;;;;;;;;;;;4182666;28;31711;-53
2021/12/22 03:33:15;;;;;;;;;;;;;;;;;;4182987;28;31426;-54
2021/12/22 03:35:38;;;;;;;;;;;;;;;;;;4183043;28;31509;-52
2021/12/22 03:37:59;;;;;;;;;;;;;;;;;;4183056;28;31665;-53
2021/12/22 03:40:21;;;;;;;;;;;;;;;;;;4183214;28;31761;-52
2021/12/22 03:42:42;;;;;;;;;;;;;;;;;;4182838;28;31724;-52
2021/12/22 03:45:06;;;;;;;;;;;;;;;;;;4183387;28;31590;-53
2021/12/22 03:47:27;;;;;;;;;;;;;;;;;;4183235;28;31759;-53
2021/12/22 03:49:49;;;;;;;;;;;;;;;;;;4183271;28;32273;-53
2021/12/22 03:52:12;;;;;;;;;;;;;;;;;;4182494;28;31886;-53
2021/12/22 03:54:33;;;;;;;;;;;;;;;;;;4183129;28;31806;-53
2021/12/22 03:56:54;;;;;;;;;;;;;;;;;;4183264;28;31599;-52
2021/12/22 03:59:15;;;;;;;;;;;;;;;;;;4182744;28;31655;-53
2021/12/22 04:01:38;;;;;;;;;;;;;;;;;;4181813;28;30452;-53
2021/12/22 04:04:04;;;;;;;;;;;;;;;;;;4183123;28;32221;-54
2021/12/22 04:06:25;;;;;;;;;;;;;;;;;;4182784;28;31640;-52
2021/12/22 04:08:46;;;;;;;;;;;;;;;;;;4181688;28;32217;-53
2021/12/22 04:11:07;;;;;;;;;;;;;;;;;;4182872;28;31663;-53
2021/12/22 04:13:29;;;;;;;;;;;;;;;;;;4182751;28;32083;-53
2021/12/22 04:15:50;;;;;;;;;;;;;;;;;;4182859;28;31720;-52
2021/12/22 04:18:12;;;;;;;;;;;;;;;;;;4182852;28;31713;-53
2021/12/22 04:20:34;;;;;;;;;;;;;;;;;;4182564;28;32014;-53
2021/12/22 04:22:55;;;;;;;;;;;;;;;;;;4182595;28;31758;-53
2021/12/22 04:25:20;;;;;;;;;;;;;;;;;;4181523;28;32007;-53
2021/12/22 04:27:41;;;;;;;;;;;;;;;;;;4182559;28;32078;-52
2021/12/22 04:30:03;;;;;;;;;;;;;;;;;;4182313;28;32222;-53
2021/12/22 04:32:24;;;;;;;;;;;;;;;;;;4182423;28;32049;-53
2021/12/22 04:34:46;;;;;;;;;;;;;;;;;;4182311;28;32158;-53
2021/12/22 04:37:07;;;;;;;;;;;;;;;;;;4182671;28;31569;-53
2021/12/22 04:39:32;;;;;;;;;;;;;;;;;;4182415;28;31628;-53
2021/12/22 04:41:53;;;;;;;;;;;;;;;;;;4182198;28;30911;-53
2021/12/22 04:44:15;;;;;;;;;;;;;;;;;;4182072;28;31280;-53
2021/12/22 04:46:36;;;;;;;;;;;;;;;;;;4182178;28;31696;-53
2021/12/22 04:48:58;;;;;;;;;;;;;;;;;;4182254;28;30679;-53
2021/12/22 04:51:26;;;;;;;;;;;;;;;;;;4182409;28;32171;-53
2021/12/22 04:53:52;;;;;;;;;;;;;;;;;;4182290;28;32149;-53
2021/12/22 04:56:13;;;;;;;;;;;;;;;;;;4182272;28;32111;-53
2021/12/22 04:58:34;;;;;;;;;;;;;;;;;;4182213;28;31338;-53
2021/12/22 05:00:56;;;;;;;;;;;;;;;;;;4181384;28;31370;-53
2021/12/22 05:03:18;;;;;;;;;;;;;;;;;;4180897;28;31685;-53
2021/12/22 05:05:39;;;;;;;;;;;;;;;;;;4181197;28;31769;-53
2021/12/22 05:08:01;;;;;;;;;;;;;;;;;;4182029;28;31745;-53
2021/12/22 05:10:23;;;;;;;;;;;;;;;;;;4182077;28;31763;-53
2021/12/22 05:12:46;;;;;;;;;;;;;;;;;;4183299;28;1257;-54
2021/12/22 05:15:08;;;;;;;;;;;;;;;;;;4181787;28;31698;-52
2021/12/22 05:17:49;;;;;;;;;;;;;;;;;;4180265;28;31599;-53
2021/12/22 05:20:11;;;;;;;;;;;;;;;;;;4181782;28;31968;-53
2021/12/22 05:22:32;;;;;;;;;;;;;;;;;;4182165;28;32203;-55
2021/12/22 05:24:57;;;;;;;;;;;;;;;;;;4181963;28;32189;-54
2021/12/22 05:27:19;;;;;;;;;;;;;;;;;;4181839;28;31700;-53
2021/12/22 05:29:40;;;;;;;;;;;;;;;;;;4182450;28;31600;-53
2021/12/22 05:32:03;;;;;;;;;;;;;;;;;;4182072;28;32267;-53
2021/12/22 05:34:25;;;;;;;;;;;;;;;;;;4181920;28;31603;-53
2021/12/22 05:36:46;;;;;;;;;;;;;;;;;;4182016;28;32219;-53
2021/12/22 05:39:07;;;;;;;;;;;;;;;;;;4181973;28;32291;-53
2021/12/22 05:41:30;;;;;;;;;;;;;;;;;;4181948;28;31716;-53
2021/12/22 05:43:52;;;;;;;;;;;;;;;;;;4181985;28;32040;-53
2021/12/22 05:46:13;;;;;;;;;;;;;;;;;;4181975;28;31613;-53
2021/12/22 05:48:34;;;;;;;;;;;;;;;;;;4182147;28;31669;-53
2021/12/22 05:50:57;;;;;;;;;;;;;;;;;;4182013;28;31762;-52
2021/12/22 05:53:19;;;;;;;;;;;;;;;;;;4182658;28;31636;-53
2021/12/22 05:55:40;;;;;;;;;;;;;;;;;;4184452;28;31469;-55
2021/12/22 05:58:03;;;;;;;;;;;;;;;;;;4184927;28;31993;-53
2021/12/22 06:00:24;;;;;;;;;;;;;;;;;;4183981;28;31717;-53
2021/12/22 06:02:45;;;;;;;;;;;;;;;;;;4185198;28;31346;-53
2021/12/22 06:05:07;;;;;;;;;;;;;;;;;;4184950;28;31433;-54
2021/12/22 06:07:28;;;;;;;;;;;;;;;;;;4184931;28;31962;-53
2021/12/22 06:09:49;;;;;;;;;;;;;;;;;;4185020;28;31396;-53
2021/12/22 06:12:10;;;;;;;;;;;;;;;;;;4184979;28;32127;-53
2021/12/22 06:14:33;;;;;;;;;;;;;;;;;;4184874;28;31827;-53
2021/12/22 06:16:54;;;;;;;;;;;;;;;;;;4184916;28;31720;-53
2021/12/22 06:19:15;;;;;;;;;;;;;;;;;;4184880;28;31654;-53
2021/12/22 06:21:38;;;;;;;;;;;;;;;;;;4184903;28;31267;-53
2021/12/22 06:23:59;;;;;;;;;;;;;;;;;;4184754;28;31627;-53
2021/12/22 06:26:20;;;;;;;;;;;;;;;;;;4184665;28;31650;-54
2021/12/22 06:28:41;;;;;;;;;;;;;;;;;;4184597;28;31830;-53
2021/12/22 06:31:04;;;;;;;;;;;;;;;;;;4184698;28;31777;-53
2021/12/22 06:33:25;;;;;;;;;;;;;;;;;;4184711;28;31672;-53
2021/12/22 06:35:46;;;;;;;;;;;;;;;;;;4184445;28;31325;-54
2021/12/22 06:38:08;;;;;;;;;;;;;;;;;;4183877;28;31916;-53
2021/12/22 06:40:29;;;;;;;;;;;;;;;;;;4184655;28;31546;-53
2021/12/22 06:42:50;;;;;;;;;;;;;;;;;;4184301;28;31885;-53
2021/12/22 06:45:12;;;;;;;;;;;;;;;;;;4182092;28;31901;-53
2021/12/22 06:47:34;;;;;;;;;;;;;;;;;;4180873;28;31959;-53
2021/12/22 06:49:55;;;;;;;;;;;;;;;;;;4184575;28;32155;-53
2021/12/22 06:52:16;;;;;;;;;;;;;;;;;;4184276;28;31811;-53
2021/12/22 06:54:38;;;;;;;;;;;;;;;;;;4184369;28;31667;-53
2021/12/22 06:56:59;;;;;;;;;;;;;;;;;;4183836;28;32189;-53
2021/12/22 06:59:21;;;;;;;;;;;;;;;;;;4179202;28;32217;-53
2021/12/22 07:01:42;;;;;;;;;;;;;;;;;;4184200;28;31522;-54
2021/12/22 07:04:05;;;;;;;;;;;;;;;;;;4183837;28;31829;-53
2021/12/22 07:06:26;;;;;;;;;;;;;;;;;;4179340;28;32029;-53
2021/12/22 07:08:47;;;;;;;;;;;;;;;;;;4184304;28;31743;-53
2021/12/22 07:11:09;;;;;;;;;;;;;;;;;;4184142;28;31720;-53
2021/12/22 07:13:30;;;;;;;;;;;;;;;;;;4184123;28;32239;-54
2021/12/22 07:15:52;;;;;;;;;;;;;;;;;;4183728;28;31519;-53
2021/12/22 07:18:13;;;;;;;;;;;;;;;;;;4184001;28;31672;-53
2021/12/22 07:20:36;;;;;;;;;;;;;;;;;;4184063;28;32123;-53
2021/12/22 07:22:57;;;;;;;;;;;;;;;;;;4183822;28;31590;-53
2021/12/22 07:25:23;;;;;;;;;;;;;;;;;;4183636;28;31724;-53
2021/12/22 07:27:44;;;;;;;;;;;;;;;;;;4167322;28;31238;-53
2021/12/22 07:30:06;;;;;;;;;;;;;;;;;;4167328;28;32056;-53
2021/12/22 07:32:27;;;;;;;;;;;;;;;;;;4167133;28;31753;-53
2021/12/22 07:34:49;;;;;;;;;;;;;;;;;;4167469;28;32244;-53
2021/12/22 07:37:15;;;;;;;;;;;;;;;;;;4166450;28;31861;-53
2021/12/22 07:39:36;;;;;;;;;;;;;;;;;;4166889;28;31361;-53
2021/12/22 07:41:57;;;;;;;;;;;;;;;;;;4166957;28;31363;-53
2021/12/22 07:44:19;;;;;;;;;;;;;;;;;;4167019;28;32247;-53
2021/12/22 07:46:40;;;;;;;;;;;;;;;;;;4166991;28;31249;-53
2021/12/22 07:49:01;;;;;;;;;;;;;;;;;;4166999;28;31362;-53
2021/12/22 07:51:22;;;;;;;;;;;;;;;;;;4166993;28;31311;-53
2021/12/22 07:53:45;;;;;;;;;;;;;;;;;;4167128;28;31596;-53
2021/12/22 07:56:06;;;;;;;;;;;;;;;;;;4166751;28;31728;-53
2021/12/22 07:58:28;;;;;;;;;;;;;;;;;;4166932;28;31625;-53
2021/12/22 08:00:49;;;;;;;;;;;;;;;;;;4166731;28;32184;-53
2021/12/22 08:03:11;;;;;;;;;;;;;;;;;;4166983;28;32221;-53
2021/12/22 08:05:33;;;;;;;;;;;;;;;;;;4166684;28;31699;-53
2021/12/22 08:07:56;;;;;;;;;;;;;;;;;;4166343;28;31797;-53
2021/12/22 08:10:18;;;;;;;;;;;;;;;;;;4166676;28;32155;-53
2021/12/22 08:12:39;;;;;;;;;;;;;;;;;;4166677;28;32575;-53
2021/12/22 08:15:01;;;;;;;;;;;;;;;;;;4166470;28;31719;-53
2021/12/22 08:17:22;;;;;;;;;;;;;;;;;;4166074;28;32732;-53
2021/12/22 08:19:45;;;;;;;;;;;;;;;;;;4166513;28;32085;-53
2021/12/22 08:22:06;;;;;;;;;;;;;;;;;;4166537;28;31784;-53
2021/12/22 08:24:27;;;;;;;;;;;;;;;;;;4166322;28;31623;-53
2021/12/22 08:26:51;;;;;;;;;;;;;;;;;;4166504;28;32106;-53
2021/12/22 08:29:12;;;;;;;;;;;;;;;;;;4166181;28;31487;-53
2021/12/22 08:31:33;;;;;;;;;;;;;;;;;;4166148;28;31399;-53
2021/12/22 08:33:55;;;;;;;;;;;;;;;;;;4166221;28;31599;-53
2021/12/22 08:38:56;;;;;;;;;;;;;;;;;;4166042;28;31876;-54
2021/12/22 08:41:18;;;;;;;;;;;;;;;;;;4166102;28;31846;-53
2021/12/22 08:43:40;;;;;;;;;;;;;;;;;;4166129;28;31733;-53
2021/12/22 08:46:02;;;;;;;;;;;;;;;;;;4170387;28;31584;-53
2021/12/22 08:48:23;;;;;;;;;;;;;;;;;;4176445;28;31726;-54
2021/12/22 08:50:44;;;;;;;;;;;;;;;;;;4179137;28;31710;-53
2021/12/22 08:53:05;;;;;;;;;;;;;;;;;;4182546;28;31529;-53
2021/12/22 08:55:26;;;;;;;;;;;;;;;;;;4182425;28;32150;-53
2021/12/22 08:57:47;;;;;;;;;;;;;;;;;;4182077;28;32190;-53
2021/12/22 09:00:11;;;;;;;;;;;;;;;;;;4182524;28;31618;-53
2021/12/22 09:02:32;;;;;;;;;;;;;;;;;;4182103;28;31768;-53
2021/12/22 09:04:53;;;;;;;;;;;;;;;;;;4182395;28;31731;-53
2021/12/22 09:07:15;;;;;;;;;;;;;;;;;;4182103;28;31743;-54
2021/12/22 09:09:38;;;;;;;;;;;;;;;;;;4182424;28;32296;-53
2021/12/22 09:11:59;;;;;;;;;;;;;;;;;;4182208;28;31934;-53
2021/12/22 09:14:21;;;;;;;;;;;;;;;;;;4182317;28;32077;-53
2021/12/22 09:16:43;;;;;;;;;;;;;;;;;;4181972;28;31434;-53
2021/12/22 09:19:04;;;;;;;;;;;;;;;;;;4182124;28;32277;-53
2021/12/22 09:21:25;;;;;;;;;;;;;;;;;;4182116;28;32066;-53
2021/12/22 09:23:46;;;;;;;;;;;;;;;;;;4178253;28;32705;-53
2021/12/22 09:26:07;;;;;;;;;;;;;;;;;;4165687;28;31724;-53
2021/12/22 09:28:29;;;;;;;;;;;;;;;;;;4164902;28;31730;-53
2021/12/22 09:30:50;;;;;;;;;;;;;;;;;;4165634;28;31704;-52
2021/12/22 09:33:14;;;;;;;;;;;;;;;;;;4165703;28;32306;-53
2021/12/22 09:35:35;;;;;;;;;;;;;;;;;;4165433;28;32054;-53
2021/12/22 09:37:56;;;;;;;;;;;;;;;;;;4165681;28;31737;-53
2021/12/22 09:40:17;;;;;;;;;;;;;;;;;;4165451;28;31353;-53
2021/12/22 09:42:39;;;;;;;;;;;;;;;;;;4165278;28;31174;-53
2021/12/22 09:45:01;;;;;;;;;;;;;;;;;;4165359;28;31336;-54
2021/12/22 09:47:28;;;;;;;;;;;;;;;;;;4181387;28;32207;-54
2021/12/22 09:50:06;;;;;;;;;;;;;;;;;;4182047;28;31611;-54
2021/12/22 09:52:28;;;;;;;;;;;;;;;;;;4179552;28;31399;-53
2021/12/22 09:54:50;;;;;;;;;;;;;;;;;;4165500;28;31880;-52
2021/12/22 09:57:11;;;;;;;;;;;;;;;;;;4176910;28;31744;-53
2021/12/22 09:59:32;;;;;;;;;;;;;;;;;;4177307;28;31566;-53
2021/12/22 10:01:54;;;;;;;;;;;;;;;;;;4181407;28;31595;-52
2021/12/22 10:04:16;;;;;;;;;;;;;;;;;;4164905;28;32146;-53
2021/12/22 10:06:39;;;;;;;;;;;;;;;;;;4164536;28;31734;-53
2021/12/22 10:09:01;;;;;;;;;;;;;;;;;;4165313;28;31855;-53
2021/12/22 10:11:22;;;;;;;;;;;;;;;;;;4176285;28;31758;-53
2021/12/22 10:13:44;;;;;;;;;;;;;;;;;;4195763;28;32296;-52
2021/12/22 10:16:10;;;;;;;;;;;;;;;;;;4182643;28;32211;-52
2021/12/22 10:18:31;;;;;;;;;;;;;;;;;;4182345;28;32106;-52
2021/12/22 10:20:53;;;;;;;;;;;;;;;;;;4182721;28;31745;-53
2021/12/22 10:23:20;;;;;;;;;;;;;;;;;;4182724;28;31732;-53
2021/12/22 10:25:41;;;;;;;;;;;;;;;;;;4182652;28;32153;-52
2021/12/22 10:28:04;;;;;;;;;;;;;;;;;;4182925;28;31962;-52
2021/12/22 10:30:34;;;;;;;;;;;;;;;;;;4182717;28;31725;-52
2021/12/22 10:33:05;;;;;;;;;;;;;;;;;;4192816;28;32008;-54
2021/12/22 10:35:31;;;;;;;;;;;;;;;;;;4199010;28;31775;-53
2021/12/22 10:37:52;;;;;;;;;;;;;;;;;;4199127;28;32243;-53
2021/12/22 10:40:26;;;;;;;;;;;;;;;;;;4201730;28;31884;-53
2021/12/22 10:42:47;;;;;;;;;;;;;;;;;;4201861;28;31861;-53
2021/12/22 10:45:11;;;;;;;;;;;;;;;;;;4202191;28;31896;-53
2021/12/22 10:49:14;;;;;;;;;;;;;;;;;;4201872;28;32097;-53
2021/12/22 10:50:13;;;;;;;;;;;;;;;;;;4201819;28;32191;-55
2021/12/22 10:52:35;;;;;;;;;;;;;;;;;;4194744;28;32109;-53
2021/12/22 10:55:06;;;;;;;;;;;;;;;;;;4184726;28;31782;-53
2021/12/22 10:57:28;;;;;;;;;;;;;;;;;;4185049;28;31459;-53
2021/12/22 10:59:50;;;;;;;;;;;;;;;;;;4185656;28;32225;-52
2021/12/22 11:02:11;;;;;;;;;;;;;;;;;;4185469;28;31982;-53
2021/12/22 11:04:34;;;;;;;;;;;;;;;;;;4184824;28;31600;-53
2021/12/22 11:06:56;;;;;;;;;;;;;;;;;;4193963;28;31666;-54
2021/12/22 11:09:17;;;;;;;;;;;;;;;;;;4190632;28;31749;-55
2021/12/22 11:11:39;;;;;;;;;;;;;;;;;;4191826;28;31606;-53
2021/12/22 11:14:06;;;;;;;;;;;;;;;;;;4201789;28;31690;-53
2021/12/22 11:16:27;;;;;;;;;;;;;;;;;;4188183;28;31275;-53
2021/12/22 11:18:50;;;;;;;;;;;;;;;;;;4184099;28;32167;-53
2021/12/22 11:21:13;;;;;;;;;;;;;;;;;;4183976;28;31841;-54
2021/12/22 11:23:34;;;;;;;;;;;;;;;;;;4183335;28;31980;-53
2021/12/22 11:25:55;;;;;;;;;;;;;;;;;;4183242;28;31442;-53
2021/12/22 11:28:17;;;;;;;;;;;;;;;;;;4183550;28;31639;-54
2021/12/22 11:30:39;;;;;;;;;;;;;;;;;;4167368;28;32290;-54
2021/12/22 11:33:00;;;;;;;;;;;;;;;;;;4167516;28;31981;-56
2021/12/22 11:35:22;;;;;;;;;;;;;;;;;;4171672;28;32103;-53
2021/12/22 11:37:43;;;;;;;;;;;;;;;;;;4171928;28;31713;-54
2021/12/22 11:40:05;;;;;;;;;;;;;;;;;;4183372;28;31791;-54
2021/12/22 11:42:31;;;;;;;;;;;;;;;;;;4183814;28;31952;-54
2021/12/22 11:44:52;;;;;;;;;;;;;;;;;;4183718;28;32158;-54
2021/12/22 11:47:15;;;;;;;;;;;;;;;;;;4174647;28;30784;-53
2021/12/22 11:49:37;;;;;;;;;;;;;;;;;;4183338;28;32103;-54
2021/12/22 11:51:59;;;;;;;;;;;;;;;;;;4182513;28;32063;-53
2021/12/22 11:54:25;;;;;;;;;;;;;;;;;;4183223;28;31764;-54
2021/12/22 11:56:47;;;;;;;;;;;;;;;;;;4182679;28;31843;-54
2021/12/22 11:59:23;;;;;;;;;;;;;;;;;;4168581;28;31604;-53
2021/12/22 12:01:59;;;;;;;;;;;;;;;;;;4166822;28;31814;-53
2021/12/22 12:04:22;;;;;;;;;;;;;;;;;;4167660;28;32121;-53
2021/12/22 12:06:47;;;;;;;;;;;;;;;;;;4182003;28;31053;-54
2021/12/22 12:09:10;;;;;;;;;;;;;;;;;;4177791;28;31727;-54
2021/12/22 12:11:45;;;;;;;;;;;;;;;;;;4182673;28;32108;-53
2021/12/22 12:14:10;;;;;;;;;;;;;;;;;;4177523;28;31353;-54
2021/12/22 12:22:04;;;;;;;;;;;;;;;;;;4180169;28;31446;-54
2021/12/22 12:24:35;;;;;;;;;;;;;;;;;;4181453;28;31288;-53
2021/12/22 12:26:56;;;;;;;;;;;;;;;;;;4183223;28;32200;-54
2021/12/22 12:29:17;;;;;;;;;;;;;;;;;;4182906;28;31213;-53
2021/12/22 12:31:39;;;;;;;;;;;;;;;;;;4182637;28;31542;-53
2021/12/22 12:34:15;;;;;;;;;;;;;;;;;;4181936;28;31813;-54
2021/12/22 12:36:37;;;;;;;;;;;;;;;;;;4182442;28;31606;-53
2021/12/22 12:38:59;;;;;;;;;;;;;;;;;;4182766;28;31561;-53
2021/12/22 12:41:25;;;;;;;;;;;;;;;;;;4182702;28;31419;-54
2021/12/22 12:43:52;;;;;;;;;;;;;;;;;;4180253;28;31715;-54
2021/12/22 12:46:28;;;;;;;;;;;;;;;;;;4180105;28;31573;-54
2021/12/22 12:48:51;;;;;;;;;;;;;;;;;;4172738;28;32287;-54
2021/12/22 12:51:12;;;;;;;;;;;;;;;;;;4178861;28;31864;-54
2021/12/22 12:53:38;;;;;;;;;;;;;;;;;;4181319;28;31746;-53
2021/12/22 12:56:04;;;;;;;;;;;;;;;;;;4181003;28;31867;-53
2021/12/22 12:58:28;;;;;;;;;;;;;;;;;;4180319;28;31743;-53
2021/12/22 13:00:49;;;;;;;;;;;;;;;;;;4179850;28;31637;-54
2021/12/22 13:03:10;;;;;;;;;;;;;;;;;;4184194;28;31842;-54
2021/12/22 13:05:32;;;;;;;;;;;;;;;;;;4190549;28;32202;-54
2021/12/22 13:07:53;;;;;;;;;;;;;;;;;;4180071;28;31703;-54
2021/12/22 13:10:22;;;;;;;;;;;;;;;;;;4180579;28;31779;-54
2021/12/22 13:13:01;;;;;;;;;;;;;;;;;;4172971;28;31426;-53
2021/12/22 13:18:01;;;;;;;;;;;;;;;;;;4175089;28;31810;-54
2021/12/22 13:20:25;;;;;;;;;;;;;;;;;;4177612;28;31347;-53
2021/12/22 13:22:47;;;;;;;;;;;;;;;;;;4165265;28;31751;-54
2021/12/22 13:25:09;;;;;;;;;;;;;;;;;;4179308;28;31127;-53
2021/12/22 13:27:31;;;;;;;;;;;;;;;;;;4180855;28;31811;-53
2021/12/22 13:30:05;;;;;;;;;;;;;;;;;;4178177;28;31228;-54
2021/12/22 13:32:26;;;;;;;;;;;;;;;;;;4164028;28;31426;-53
2021/12/22 13:34:49;;;;;;;;;;;;;;;;;;4164042;28;31621;-53
2021/12/22 13:37:11;;;;;;;;;;;;;;;;;;4164094;28;31317;-53
2021/12/22 13:39:40;;;;;;;;;;;;;;;;;;4170489;28;32236;-55
2021/12/22 13:42:06;;;;;;;;;;;;;;;;;;4180570;28;32691;-54
2021/12/22 13:44:32;;;;;;;;;;;;;;;;;;4181699;28;31629;-53
2021/12/22 13:46:54;;;;;;;;;;;;;;;;;;4181370;28;31965;-53
2021/12/22 13:49:16;;;;;;;;;;;;;;;;;;4181801;28;31795;-54
2021/12/22 13:51:40;;;;;;;;;;;;;;;;;;4182294;28;31588;-54
2021/12/22 13:54:01;;;;;;;;;;;;;;;;;;4182215;28;32199;-54
2021/12/22 13:56:23;;;;;;;;;;;;;;;;;;4182232;28;31821;-53
2021/12/22 13:58:45;;;;;;;;;;;;;;;;;;4182284;28;31623;-53
2021/12/22 14:01:12;;;;;;;;;;;;;;;;;;4182030;28;31990;-54
2021/12/22 14:03:35;;;;;;;;;;;;;;;;;;4182418;28;31645;-53
2021/12/22 14:06:04;;;;;;;;;;;;;;;;;;4197547;28;31531;-54
2021/12/22 14:08:25;;;;;;;;;;;;;;;;;;4198609;28;31730;-53
2021/12/22 14:10:46;;;;;;;;;;;;;;;;;;4198672;28;31637;-54
2021/12/22 14:13:07;;;;;;;;;;;;;;;;;;4198485;28;31632;-54
2021/12/22 14:15:36;;;;;;;;;;;;;;;;;;4196451;28;32139;-54
2021/12/22 14:17:57;;;;;;;;;;;;;;;;;;4183826;28;31741;-54
2021/12/22 14:20:20;;;;;;;;;;;;;;;;;;4184179;28;31913;-53
2021/12/22 14:22:42;;;;;;;;;;;;;;;;;;4184105;28;32046;-54
2021/12/22 14:25:04;;;;;;;;;;;;;;;;;;4183796;28;31295;-53
2021/12/22 14:27:31;;;;;;;;;;;;;;;;;;4183715;28;31831;-54
2021/12/22 14:29:53;;;;;;;;;;;;;;;;;;4183751;28;32154;-53
2021/12/22 14:32:22;;;;;;;;;;;;;;;;;;4183937;28;32004;-53
2021/12/22 14:34:56;;;;;;;;;;;;;;;;;;4210922;28;31867;-53
2021/12/22 14:37:28;;;;;;;;;;;;;;;;;;4183814;28;32087;-53
2021/12/22 14:39:49;;;;;;;;;;;;;;;;;;4183648;28;32076;-54
2021/12/22 14:42:20;;;;;;;;;;;;;;;;;;4183670;28;31346;-54
2021/12/22 14:44:41;;;;;;;;;;;;;;;;;;4184003;28;32130;-54
2021/12/22 14:47:03;;;;;;;;;;;;;;;;;;4183291;28;31645;-53
2021/12/22 14:49:24;;;;;;;;;;;;;;;;;;4183448;28;31955;-54
2021/12/22 14:51:46;;;;;;;;;;;;;;;;;;4177150;28;31109;-54
2021/12/22 14:54:10;;;;;;;;;;;;;;;;;;4178458;28;32158;-54
2021/12/22 14:56:38;;;;;;;;;;;;;;;;;;4179336;28;32759;-53
2021/12/22 14:58:59;;;;;;;;;;;;;;;;;;4197890;28;31700;-53
2021/12/22 15:01:21;;;;;;;;;;;;;;;;;;4188153;28;31872;-53
2021/12/22 15:03:42;;;;;;;;;;;;;;;;;;4179408;28;32100;-53
2021/12/22 15:06:05;;;;;;;;;;;;;;;;;;4176794;28;31713;-54
2021/12/22 15:08:26;;;;;;;;;;;;;;;;;;4181729;28;31749;-54
2021/12/22 15:10:49;;;;;;;;;;;;;;;;;;4183044;28;31926;-53
2021/12/22 15:13:10;;;;;;;;;;;;;;;;;;4184123;28;32162;-53
2021/12/22 15:15:31;;;;;;;;;;;;;;;;;;4182683;28;31171;-53
2021/12/22 15:17:53;;;;;;;;;;;;;;;;;;4182698;28;31714;-53
2021/12/22 15:20:14;;;;;;;;;;;;;;;;;;4190364;28;32264;-53
2021/12/22 15:22:35;;;;;;;;;;;;;;;;;;4191660;28;31605;-54
2021/12/22 15:24:56;;;;;;;;;;;;;;;;;;4190198;28;31278;-53
2021/12/22 15:27:19;;;;;;;;;;;;;;;;;;4191428;28;32221;-53
2021/12/22 15:29:40;;;;;;;;;;;;;;;;;;4191409;28;31725;-53
2021/12/22 15:32:01;;;;;;;;;;;;;;;;;;4183380;28;32206;-53
2021/12/22 15:34:24;;;;;;;;;;;;;;;;;;4183821;28;32190;-54
2021/12/22 15:36:45;;;;;;;;;;;;;;;;;;4183501;28;32090;-53
2021/12/22 15:39:06;;;;;;;;;;;;;;;;;;4183722;28;31661;-53
2021/12/22 15:41:27;;;;;;;;;;;;;;;;;;4183415;28;32365;-54
2021/12/22 15:43:50;;;;;;;;;;;;;;;;;;4183246;28;31642;-53
2021/12/22 15:46:12;;;;;;;;;;;;;;;;;;4183289;28;31969;-53
2021/12/22 15:48:34;;;;;;;;;;;;;;;;;;4183424;28;31706;-53
2021/12/22 15:50:56;;;;;;;;;;;;;;;;;;4183380;28;32183;-53
2021/12/22 15:53:17;;;;;;;;;;;;;;;;;;4183348;28;31900;-54
2021/12/22 15:55:38;;;;;;;;;;;;;;;;;;4180870;28;31586;-54
2021/12/22 15:58:01;;;;;;;;;;;;;;;;;;4178936;28;31562;-54
2021/12/22 16:00:27;;;;;;;;;;;;;;;;;;4166951;28;32130;-54
2021/12/22 16:02:49;;;;;;;;;;;;;;;;;;4177872;28;32200;-53
2021/12/22 16:05:10;;;;;;;;;;;;;;;;;;4183152;28;31614;-54
2021/12/22 16:07:33;;;;;;;;;;;;;;;;;;4182456;28;31891;-54
2021/12/22 16:09:54;;;;;;;;;;;;;;;;;;4175785;28;31796;-53
2021/12/22 16:12:16;;;;;;;;;;;;;;;;;;4168849;28;31632;-53
2021/12/22 16:14:37;;;;;;;;;;;;;;;;;;4182255;28;31722;-54
2021/12/22 16:16:59;;;;;;;;;;;;;;;;;;4182840;28;31674;-53
2021/12/22 16:19:21;;;;;;;;;;;;;;;;;;4182759;28;30705;-53
2021/12/22 16:21:42;;;;;;;;;;;;;;;;;;4166254;28;31420;-54
2021/12/22 16:24:03;;;;;;;;;;;;;;;;;;4174890;28;31695;-53
2021/12/22 16:26:25;;;;;;;;;;;;;;;;;;4182612;28;31992;-53
2021/12/22 16:28:46;;;;;;;;;;;;;;;;;;4182916;28;31623;-53
2021/12/22 16:31:07;;;;;;;;;;;;;;;;;;4183004;28;31835;-53
2021/12/22 16:33:30;;;;;;;;;;;;;;;;;;4182574;28;31250;-53
2021/12/22 16:35:51;;;;;;;;;;;;;;;;;;4182479;28;32261;-53